Time;durP1;ratioP1;P1;durP2;ratioP2;P2;SDS_P1;SDS_P2;PMS_P1;PMS_P2;Temp;Humidity;BMP_temperature;BMP_pressure;BME280_temperature;BME280_humidity;BME280_pressure;Samples;Min_cycle;Max_cycle;Signal;HPM_P1;HPM_P2
2022/08/26 00:01:40;;;;;;;29.67;26.38;;;20.90;99.90;;;;;;4985861;28;20045;-75
2022/08/26 00:04:07;;;;;;;30.00;26.95;;;20.90;99.90;;;;;;4992154;28;20037;-77
2022/08/26 00:06:33;;;;;;;29.98;26.77;;;20.90;99.90;;;;;;5022596;28;20125;-78
2022/08/26 00:08:59;;;;;;;29.83;25.95;;;20.90;99.90;;;;;;4998905;28;20049;-76
2022/08/26 00:11:26;;;;;;;29.13;25.98;;;20.90;99.90;;;;;;5015856;28;20045;-77
2022/08/26 00:13:53;;;;;;;30.98;27.73;;;20.80;99.90;;;;;;5047880;28;20041;-77
2022/08/26 00:16:19;;;;;;;30.33;27.08;;;20.70;99.90;;;;;;5015723;28;20038;-78
2022/08/26 00:18:44;;;;;;;29.10;26.13;;;20.70;99.90;;;;;;5031858;28;20381;-76
2022/08/26 00:21:10;;;;;;;29.10;26.05;;;20.70;99.90;;;;;;5031535;28;20049;-76
2022/08/26 00:23:39;;;;;;;29.65;26.52;;;20.70;99.90;;;;;;5011380;28;20440;-76
2022/08/26 00:26:10;;;;;;;30.60;26.42;;;20.70;99.90;;;;;;5035767;28;20057;-77
2022/08/26 00:28:36;;;;;;;31.92;27.08;;;20.70;99.90;;;;;;5036346;28;20099;-76
2022/08/26 00:31:02;;;;;;;30.08;26.88;;;20.70;99.90;;;;;;5021643;28;20053;-77
2022/08/26 00:33:29;;;;;;;29.65;26.65;;;20.60;99.90;;;;;;5005681;28;20040;-75
2022/08/26 00:35:54;;;;;;;31.48;27.17;;;20.60;99.90;;;;;;5037588;28;20052;-75
2022/08/26 00:38:21;;;;;;;30.65;27.25;;;20.60;99.90;;;;;;5023589;28;20040;-76
2022/08/26 00:40:56;;;;;;;28.80;25.70;;;20.60;99.90;;;;;;5000784;28;20037;-76
2022/08/26 00:43:24;;;;;;;30.02;26.70;;;20.70;99.90;;;;;;5017384;28;20064;-78
2022/08/26 00:45:57;;;;;;;31.60;26.45;;;20.70;99.90;;;;;;5033717;28;20047;-76
2022/08/26 00:48:26;;;;;;;30.23;26.38;;;20.70;99.90;;;;;;5034058;28;20132;-75
2022/08/26 00:51:00;;;;;;;30.85;25.58;;;20.70;99.90;;;;;;5016814;28;20527;-75
2022/08/26 00:53:31;;;;;;;27.58;24.33;;;20.70;99.90;;;;;;5017574;28;20669;-76
2022/08/26 00:56:08;;;;;;;27.60;24.50;;;20.90;99.90;;;;;;5017566;28;20044;-77
2022/08/26 00:58:37;;;;;;;30.95;24.10;;;21.00;99.90;;;;;;5033858;28;20037;-76
2022/08/26 01:01:04;;;;;;;32.00;23.65;;;21.10;99.90;;;;;;5033165;28;20045;-76
2022/08/26 01:03:32;;;;;;;27.45;23.80;;;21.20;99.90;;;;;;4984716;28;20508;-75
2022/08/26 01:06:00;;;;;;;31.77;24.92;;;21.20;99.90;;;;;;5017130;28;20329;-77
2022/08/26 01:08:26;;;;;;;28.45;24.23;;;21.20;99.90;;;;;;5051534;28;20079;-76
2022/08/26 01:10:54;;;;;;;33.20;23.15;;;21.30;99.90;;;;;;5016722;28;20068;-77
2022/08/26 01:13:20;;;;;;;29.02;22.63;;;21.20;99.90;;;;;;5017488;28;20088;-76
2022/08/26 01:15:50;;;;;;;29.02;23.20;;;21.30;99.90;;;;;;5033443;28;20044;-77
2022/08/26 01:18:17;;;;;;;33.38;24.45;;;21.30;99.90;;;;;;5017322;28;20414;-76
2022/08/26 01:21:01;;;;;;;30.17;22.42;;;21.30;99.90;;;;;;5000862;28;20044;-76
2022/08/26 01:23:32;;;;;;;30.23;22.92;;;21.30;99.90;;;;;;5033429;28;20410;-77
2022/08/26 01:26:03;;;;;;;29.50;23.38;;;21.20;99.90;;;;;;5016826;28;20041;-76
2022/08/26 01:28:32;;;;;;;33.10;23.02;;;21.30;99.90;;;;;;5017043;28;20489;-78
2022/08/26 01:31:01;;;;;;;30.13;23.48;;;21.30;99.90;;;;;;5016901;28;20045;-76
2022/08/26 01:33:47;;;;;;;35.08;24.98;;;21.40;99.90;;;;;;5033612;28;20400;-77
2022/08/26 01:36:14;;;;;;;35.28;24.50;;;21.30;99.90;;;;;;5017043;28;20040;-78
2022/08/26 01:38:40;;;;;;;33.33;22.25;;;21.30;99.90;;;;;;5017613;28;20037;-77
2022/08/26 01:41:08;;;;;;;29.80;23.95;;;21.30;99.90;;;;;;5032838;28;20037;-77
2022/08/26 01:43:37;;;;;;;31.73;23.23;;;21.30;99.90;;;;;;5033607;28;20048;-78
2022/08/26 01:46:04;;;;;;;36.40;23.58;;;21.30;99.90;;;;;;5016686;28;20044;-75
2022/08/26 01:48:31;;;;;;;31.83;23.60;;;21.30;99.90;;;;;;5032864;28;20045;-75
2022/08/26 01:50:58;;;;;;;29.30;22.55;;;21.30;99.90;;;;;;5032437;28;20045;-75
2022/08/26 01:53:26;;;;;;;33.30;22.83;;;21.30;99.90;;;;;;5019998;28;20047;-76
2022/08/26 01:55:56;;;;;;;32.00;23.33;;;21.30;99.90;;;;;;5020787;28;20597;-76
2022/08/26 01:58:35;;;;;;;31.27;22.63;;;21.30;99.90;;;;;;5020520;28;20041;-75
2022/08/26 02:01:01;;;;;;;37.10;22.73;;;21.30;99.90;;;;;;5020378;28;20433;-75
2022/08/26 02:03:28;;;;;;;29.67;21.95;;;21.20;99.90;;;;;;5020851;28;20393;-76
2022/08/26 02:06:02;;;;;;;29.20;22.88;;;21.30;99.90;;;;;;5036982;28;20611;-75
2022/08/26 02:08:42;;;;;;;;;;;21.20;99.90;;;;;;5021148;28;20036;-76
2022/08/26 02:11:10;;;;;;;33.22;23.63;;;21.30;99.90;;;;;;5020199;28;19920;-77
2022/08/26 02:13:50;;;;;;;36.47;24.45;;;21.20;99.90;;;;;;5020430;28;20080;-76
2022/08/26 02:16:18;;;;;;;37.40;23.77;;;21.30;99.90;;;;;;5019967;28;20515;-76
2022/08/26 02:18:47;;;;;;;30.98;23.40;;;21.20;99.90;;;;;;5020404;28;20041;-76
2022/08/26 02:21:14;;;;;;;34.00;22.15;;;21.20;99.90;;;;;;5036296;28;20123;-76
2022/08/26 02:23:41;;;;;;;36.05;22.60;;;21.30;99.90;;;;;;5036821;28;20194;-76
2022/08/26 02:26:25;;;;;;;33.22;22.13;;;21.30;99.90;;;;;;5019944;28;20401;-77
2022/08/26 02:29:22;;;;;;;27.55;22.42;;;21.30;99.90;;;;;;5036809;28;20432;-76
2022/08/26 02:31:49;;;;;;;31.50;22.98;;;21.30;99.90;;;;;;5035006;28;20128;-79
2022/08/26 02:34:20;;;;;;;32.17;21.60;;;21.20;99.90;;;;;;5019952;28;20041;-78
2022/08/26 02:36:46;;;;;;;32.33;22.67;;;21.30;99.90;;;;;;5054844;28;20353;-80
2022/08/26 02:39:12;;;;;;;33.60;22.60;;;21.20;99.90;;;;;;5020183;28;20041;-78
2022/08/26 02:41:37;;;;;;;38.17;23.65;;;21.30;99.90;;;;;;4987828;28;20033;-76
2022/08/26 02:44:05;;;;;;;32.88;23.17;;;21.30;99.90;;;;;;5019519;28;20048;-76
2022/08/26 02:46:32;;;;;;;28.35;22.10;;;21.30;99.90;;;;;;5036428;28;20123;-76
2022/08/26 02:48:58;;;;;;;32.10;22.73;;;21.30;99.90;;;;;;5019496;28;20144;-76
2022/08/26 02:51:24;;;;;;;32.30;21.55;;;21.30;99.90;;;;;;5019400;28;20056;-78
2022/08/26 02:53:49;;;;;;;30.40;21.48;;;21.30;99.90;;;;;;5036097;28;20045;-75
2022/08/26 02:56:15;;;;;;;30.77;20.92;;;21.20;99.90;;;;;;5019642;28;20032;-76
2022/08/26 02:58:41;;;;;;;33.22;20.90;;;21.30;99.90;;;;;;5003292;28;20045;-76
2022/08/26 03:01:07;;;;;;;28.65;21.20;;;21.30;99.90;;;;;;5019062;28;20049;-75
2022/08/26 03:03:33;;;;;;;33.53;20.83;;;21.30;99.90;;;;;;5018018;28;20040;-75
2022/08/26 03:05:59;;;;;;;33.58;21.10;;;21.30;99.90;;;;;;5002378;28;20045;-76
2022/08/26 03:08:25;;;;;;;32.95;20.73;;;21.30;99.90;;;;;;5019325;28;20045;-76
2022/08/26 03:10:51;;;;;;;34.67;21.23;;;21.30;99.90;;;;;;5002873;28;20044;-76
2022/08/26 03:13:17;;;;;;;33.47;20.65;;;21.20;99.90;;;;;;5018743;28;20045;-75
2022/08/26 03:15:43;;;;;;;33.30;19.60;;;21.30;99.90;;;;;;5035841;28;20051;-77
2022/08/26 03:18:09;;;;;;;29.75;20.65;;;21.30;99.90;;;;;;5018662;28;20040;-75
2022/08/26 03:20:35;;;;;;;35.85;20.15;;;21.30;99.90;;;;;;5002572;28;20041;-75
2022/08/26 03:23:01;;;;;;;32.42;20.75;;;21.30;99.90;;;;;;5018729;28;20049;-76
2022/08/26 03:25:27;;;;;;;28.05;20.05;;;21.20;99.90;;;;;;5003127;28;20527;-74
2022/08/26 03:27:52;;;;;;;29.65;20.60;;;21.20;99.90;;;;;;5019525;28;20060;-75
2022/08/26 03:33:03;;;;;;;;;;;21.30;99.90;;;;;;5021616;28;20048;-78
2022/08/26 03:35:29;;;;;;;31.88;20.90;;;21.40;99.90;;;;;;5019136;28;19921;-77
2022/08/26 03:37:57;;;;;;;29.65;19.70;;;21.30;99.90;;;;;;5019035;28;20040;-78
2022/08/26 03:40:23;;;;;;;34.30;20.08;;;21.30;99.90;;;;;;5019086;28;20054;-76
2022/08/26 03:42:50;;;;;;;37.45;18.65;;;21.30;99.90;;;;;;5018652;28;20095;-78
2022/08/26 03:45:18;;;;;;;30.75;18.65;;;21.30;99.90;;;;;;5034531;28;20128;-78
2022/08/26 03:47:44;;;;;;;25.35;17.88;;;21.30;99.90;;;;;;5035365;28;20037;-77
2022/08/26 03:50:13;;;;;;;28.17;17.55;;;21.30;99.90;;;;;;5034520;28;20084;-77
2022/08/26 03:52:40;;;;;;;26.17;16.95;;;21.20;99.90;;;;;;5034748;28;20388;-76
2022/08/26 03:55:08;;;;;;;29.58;16.85;;;21.30;99.90;;;;;;5034509;28;20098;-77
2022/08/26 03:57:34;;;;;;;26.10;16.52;;;21.30;99.90;;;;;;5035140;28;20128;-77
2022/08/26 04:00:00;;;;;;;26.13;17.23;;;21.20;99.90;;;;;;5018670;28;20075;-77
2022/08/26 04:02:26;;;;;;;28.95;17.60;;;21.20;99.90;;;;;;4986049;28;20434;-77
2022/08/26 04:04:52;;;;;;;25.90;17.02;;;21.20;99.90;;;;;;5002415;28;20083;-77
2022/08/26 04:07:18;;;;;;;28.75;17.33;;;21.30;99.90;;;;;;5034371;28;20080;-77
2022/08/26 04:09:44;;;;;;;27.13;15.77;;;21.20;99.90;;;;;;5018647;28;20063;-78
2022/08/26 04:12:10;;;;;;;27.02;16.73;;;21.20;99.90;;;;;;5017685;28;20546;-77
2022/08/26 04:14:37;;;;;;;22.90;16.90;;;21.20;99.90;;;;;;5034464;28;20081;-77
2022/08/26 04:17:03;;;;;;;23.98;15.60;;;21.20;99.90;;;;;;5017865;28;20052;-77
2022/08/26 04:19:30;;;;;;;26.08;14.95;;;21.20;99.90;;;;;;5034424;28;20045;-77
2022/08/26 04:21:56;;;;;;;22.10;14.55;;;21.10;99.90;;;;;;5034274;28;20045;-77
2022/08/26 04:24:23;;;;;;;27.00;14.95;;;21.10;99.90;;;;;;5033622;28;20052;-76
2022/08/26 04:26:49;;;;;;;23.60;15.43;;;21.10;99.90;;;;;;5001433;28;20044;-77
2022/08/26 04:29:25;;;;;;;25.05;14.07;;;21.10;99.90;;;;;;5033949;28;20459;-77
2022/08/26 04:31:53;;;;;;;25.05;15.35;;;21.10;99.90;;;;;;5033898;28;20041;-76
2022/08/26 04:34:19;;;;;;;25.02;15.05;;;21.00;99.90;;;;;;5017515;28;20045;-77
2022/08/26 04:36:46;;;;;;;26.95;15.07;;;21.00;99.90;;;;;;5017983;28;20537;-77
2022/08/26 04:39:15;;;;;;;25.13;15.18;;;21.00;99.90;;;;;;5001481;28;20091;-76
2022/08/26 04:41:42;;;;;;;26.52;14.88;;;21.00;99.90;;;;;;5017438;28;20041;-76
2022/08/26 04:44:08;;;;;;;22.40;14.70;;;21.10;99.90;;;;;;5017242;28;20083;-77
2022/08/26 04:46:34;;;;;;;24.92;14.48;;;21.10;99.90;;;;;;5017442;28;20033;-76
2022/08/26 04:49:00;;;;;;;28.27;15.13;;;21.10;99.90;;;;;;5033853;28;20422;-78
2022/08/26 04:51:28;;;;;;;25.52;14.25;;;21.10;99.90;;;;;;5017300;28;20048;-78
2022/08/26 04:54:01;;;;;;;24.13;15.07;;;21.10;99.90;;;;;;5017473;28;20048;-77
2022/08/26 04:56:31;;;;;;;24.00;15.00;;;21.20;99.90;;;;;;5017592;28;20519;-78
2022/08/26 04:59:01;;;;;;;21.08;14.98;;;21.20;99.90;;;;;;5017885;28;20044;-77
2022/08/26 05:01:28;;;;;;;27.65;15.98;;;21.20;99.90;;;;;;5000991;28;20077;-77
2022/08/26 05:03:57;;;;;;;24.92;15.90;;;21.10;99.90;;;;;;5033891;28;20083;-77
2022/08/26 05:06:23;;;;;;;26.88;16.48;;;21.10;99.90;;;;;;5016896;28;20091;-77
2022/08/26 05:08:49;;;;;;;25.80;15.55;;;21.10;99.90;;;;;;5017031;28;20041;-77
2022/08/26 05:11:16;;;;;;;21.15;14.93;;;21.00;99.90;;;;;;5016784;28;20036;-77
2022/08/26 05:13:42;;;;;;;21.50;15.35;;;21.00;99.90;;;;;;5017677;28;20060;-78
2022/08/26 05:16:10;;;;;;;22.33;15.75;;;21.20;99.90;;;;;;5017049;28;20045;-78
2022/08/26 05:18:37;;;;;;;24.60;16.45;;;21.00;99.90;;;;;;5033945;28;20377;-77
2022/08/26 05:21:03;;;;;;;25.23;15.13;;;21.00;99.90;;;;;;5000391;28;20037;-76
2022/08/26 05:23:32;;;;;;;24.67;15.48;;;21.10;99.90;;;;;;5017190;28;20060;-77
2022/08/26 05:25:59;;;;;;;20.58;15.52;;;21.00;99.90;;;;;;5000831;28;20124;-77
2022/08/26 05:28:27;;;;;;;25.52;16.45;;;21.00;99.90;;;;;;5032549;28;20036;-78
2022/08/26 05:30:54;;;;;;;19.88;15.02;;;21.10;99.90;;;;;;5017024;28;20049;-78
2022/08/26 05:33:20;;;;;;;22.42;15.50;;;21.10;99.90;;;;;;5016582;28;20041;-78
2022/08/26 05:35:47;;;;;;;27.88;17.17;;;21.10;99.90;;;;;;5000828;28;20040;-77
2022/08/26 05:38:15;;;;;;;22.75;16.75;;;21.10;99.90;;;;;;5033217;28;20139;-78
2022/08/26 05:40:47;;;;;;;28.27;16.50;;;21.10;99.90;;;;;;5017167;28;20041;-78
2022/08/26 05:43:15;;;;;;;28.92;16.83;;;21.10;99.90;;;;;;5032915;28;20044;-78
2022/08/26 05:45:43;;;;;;;25.23;17.85;;;21.10;99.90;;;;;;5017188;28;20128;-78
2022/08/26 05:48:09;;;;;;;26.15;16.75;;;21.20;99.90;;;;;;5033064;28;20124;-78
2022/08/26 05:50:39;;;;;;;28.20;18.23;;;21.20;99.90;;;;;;5017279;28;20144;-78
2022/08/26 05:53:07;;;;;;;28.45;18.13;;;21.20;99.90;;;;;;5033403;28;20562;-77
2022/08/26 05:55:33;;;;;;;29.45;17.83;;;21.20;99.90;;;;;;5016446;28;20041;-77
2022/08/26 05:58:02;;;;;;;26.73;16.92;;;21.20;99.90;;;;;;5016959;28;20041;-79
2022/08/26 06:00:28;;;;;;;22.20;16.33;;;21.20;99.90;;;;;;5016582;28;20048;-78
2022/08/26 06:02:56;;;;;;;25.13;16.23;;;21.20;99.90;;;;;;5000331;28;20049;-78
2022/08/26 06:05:22;;;;;;;25.83;15.93;;;21.20;99.90;;;;;;5016158;28;20049;-77
2022/08/26 06:10:32;;;;;;;26.35;14.88;;;21.20;99.90;;;;;;5019040;28;20080;-77
2022/08/26 06:12:58;;;;;;;26.95;15.65;;;21.20;99.90;;;;;;5016408;28;20087;-77
2022/08/26 06:15:24;;;;;;;26.90;15.02;;;21.30;99.90;;;;;;5016013;28;20037;-79
2022/08/26 06:17:50;;;;;;;27.33;15.60;;;21.30;99.90;;;;;;5033215;28;20029;-76
2022/08/26 06:20:16;;;;;;;22.92;15.75;;;21.20;99.90;;;;;;5032978;28;20049;-78
2022/08/26 06:25:37;;;;;;;24.98;14.35;;;21.20;99.90;;;;;;5017608;28;20148;-79
2022/08/26 06:28:04;;;;;;;24.92;14.60;;;21.20;99.90;;;;;;5018467;28;20369;-80
2022/08/26 06:30:38;;;;;;;23.70;13.25;;;21.20;99.90;;;;;;4999657;28;20048;-79
2022/08/26 06:33:10;;;;;;;19.63;12.68;;;21.30;99.90;;;;;;5016658;28;20080;-80
2022/08/26 06:35:45;;;;;;;23.45;14.15;;;21.40;99.90;;;;;;5017126;28;20135;-79
2022/08/26 06:38:12;;;;;;;20.75;12.57;;;21.20;99.90;;;;;;5017229;28;20107;-81
2022/08/26 06:40:47;;;;;;;17.58;12.85;;;21.30;99.90;;;;;;5020473;28;20377;-78
2022/08/26 06:43:17;;;;;;;20.92;13.18;;;21.40;99.90;;;;;;5020268;28;20139;-77
2022/08/26 06:45:44;;;;;;;23.38;12.50;;;21.50;99.90;;;;;;5019745;28;20051;-77
2022/08/26 06:48:12;;;;;;;20.40;12.43;;;21.50;99.90;;;;;;5019770;28;20045;-79
2022/08/26 06:50:38;;;;;;;22.17;14.00;;;21.60;99.90;;;;;;5019472;28;20041;-77
2022/08/26 06:53:04;;;;;;;17.52;12.15;;;21.70;99.90;;;;;;5035903;28;20048;-78
2022/08/26 06:55:29;;;;;;;19.40;12.05;;;21.70;99.90;;;;;;5003614;28;20064;-77
2022/08/26 06:57:56;;;;;;;20.38;11.63;;;21.60;99.90;;;;;;5003249;28;20401;-78
2022/08/26 07:00:22;;;;;;;25.65;11.73;;;21.60;99.90;;;;;;5036357;28;20138;-80
2022/08/26 07:02:48;;;;;;;16.88;10.55;;;21.70;99.90;;;;;;5036610;28;20497;-79
2022/08/26 07:05:17;;;;;;;18.83;10.75;;;21.70;99.90;;;;;;5019472;28;20132;-79
2022/08/26 07:07:42;;;;;;;18.40;10.73;;;21.70;99.90;;;;;;5004015;28;20064;-80
2022/08/26 07:10:09;;;;;;;17.33;10.68;;;21.70;99.90;;;;;;5003528;28;20665;-78
2022/08/26 07:12:35;;;;;;;19.48;11.48;;;21.60;99.90;;;;;;4986748;28;20518;-78
2022/08/26 07:15:01;;;;;;;18.23;11.65;;;21.60;99.90;;;;;;5019581;28;20044;-78
2022/08/26 07:17:28;;;;;;;16.83;10.73;;;21.50;99.90;;;;;;5019065;28;20493;-79
2022/08/26 07:19:56;;;;;;;24.13;11.65;;;21.50;99.90;;;;;;5053792;28;20079;-79
2022/08/26 07:22:22;;;;;;;23.08;10.80;;;21.50;99.90;;;;;;5035345;28;20073;-79
2022/08/26 07:24:48;;;;;;;17.77;11.65;;;21.50;99.90;;;;;;5019224;28;20061;-78
2022/08/26 07:27:15;;;;;;;18.42;10.48;;;21.50;99.90;;;;;;5019078;28;20048;-79
2022/08/26 07:29:42;;;;;;;21.65;11.50;;;21.40;99.90;;;;;;5019380;28;20048;-79
2022/08/26 07:32:10;;;;;;;18.27;10.55;;;21.50;99.90;;;;;;5034994;28;20110;-80
2022/08/26 07:34:36;;;;;;;18.80;10.13;;;21.50;99.90;;;;;;5035302;28;20130;-78
2022/08/26 07:37:02;;;;;;;15.93;9.52;;;21.50;99.90;;;;;;5019136;28;20124;-79
2022/08/26 07:39:29;;;;;;;17.60;9.85;;;21.50;99.90;;;;;;5018816;28;20045;-79
2022/08/26 07:41:58;;;;;;;18.23;8.90;;;21.50;99.90;;;;;;5035142;28;20045;-78
2022/08/26 07:44:25;;;;;;;16.58;8.43;;;21.60;99.90;;;;;;5042889;28;20124;-78
2022/08/26 07:46:52;;;;;;;14.93;8.35;;;21.50;99.90;;;;;;5022500;28;20484;-79
2022/08/26 07:49:25;;;;;;;14.40;7.53;;;21.60;99.90;;;;;;5037847;28;20077;-79
2022/08/26 07:51:52;;;;;;;12.18;6.68;;;21.50;99.90;;;;;;5039168;28;20037;-78
2022/08/26 07:54:22;;;;;;;14.27;7.78;;;21.60;99.90;;;;;;5023044;28;20517;-79
2022/08/26 07:56:48;;;;;;;16.02;6.93;;;21.70;99.90;;;;;;5006137;28;20036;-79
2022/08/26 07:59:19;;;;;;;14.48;7.32;;;21.70;99.90;;;;;;5071572;28;20481;-77
2022/08/26 08:01:45;;;;;;;16.58;7.85;;;21.70;99.90;;;;;;5021426;28;20037;-77
2022/08/26 08:04:16;;;;;;;15.18;7.90;;;21.70;99.90;;;;;;5054932;28;20090;-78
2022/08/26 08:06:42;;;;;;;15.77;7.78;;;21.70;99.90;;;;;;5054623;28;20045;-77
2022/08/26 08:09:08;;;;;;;14.63;6.57;;;21.60;99.90;;;;;;5038393;28;20071;-77
2022/08/26 08:11:34;;;;;;;14.55;6.32;;;21.60;99.90;;;;;;5053980;28;20147;-78
2022/08/26 08:14:01;;;;;;;10.60;5.53;;;21.70;99.90;;;;;;5035771;28;20116;-77
2022/08/26 08:16:28;;;;;;;10.60;4.90;;;21.80;99.90;;;;;;5035860;28;20040;-76
2022/08/26 08:18:55;;;;;;;10.13;4.90;;;21.70;99.90;;;;;;5000942;28;20075;-77
2022/08/26 08:21:25;;;;;;;10.05;5.07;;;21.80;99.90;;;;;;5026079;28;20085;-77
2022/08/26 08:23:52;;;;;;;7.70;4.30;;;21.80;99.90;;;;;;5014396;28;20557;-77
2022/08/26 08:26:18;;;;;;;8.82;4.68;;;21.80;99.90;;;;;;5014736;28;20087;-77
2022/08/26 08:28:45;;;;;;;12.98;5.47;;;21.80;99.90;;;;;;5014729;28;20045;-78
2022/08/26 08:31:27;;;;;;;8.98;4.25;;;21.80;99.90;;;;;;4983119;28;20453;-78
2022/08/26 08:33:53;;;;;;;8.95;4.60;;;21.90;99.90;;;;;;5014589;28;20092;-77
2022/08/26 08:36:20;;;;;;;6.90;4.03;;;21.90;99.90;;;;;;5013996;28;20037;-77
2022/08/26 08:38:45;;;;;;;6.70;3.63;;;21.90;99.90;;;;;;5014358;28;20119;-78
2022/08/26 08:41:27;;;;;;;6.82;3.38;;;22.00;99.90;;;;;;5014380;28;20041;-78
2022/08/26 08:43:54;;;;;;;7.28;3.58;;;22.00;99.90;;;;;;5014784;28;20128;-78
2022/08/26 08:46:20;;;;;;;6.80;3.60;;;22.10;99.90;;;;;;5014795;28;20045;-78
2022/08/26 08:48:51;;;;;;;7.05;3.60;;;22.20;99.90;;;;;;4997718;28;20037;-75
2022/08/26 08:51:22;;;;;;;6.88;3.63;;;22.30;99.90;;;;;;5014462;28;20521;-76
2022/08/26 08:53:50;;;;;;;6.40;3.40;;;22.30;99.90;;;;;;5014280;28;20132;-75
2022/08/26 08:56:26;;;;;;;6.80;3.13;;;22.40;99.90;;;;;;5021062;28;20032;-73
2022/08/26 08:58:56;;;;;;;8.38;2.90;;;22.40;99.90;;;;;;5020021;28;20124;-76
2022/08/26 09:01:25;;;;;;;7.32;2.42;;;22.40;99.90;;;;;;5012602;28;20084;-76
2022/08/26 09:04:25;;;;;;;10.40;2.47;;;22.10;99.90;;;;;;4996637;28;20057;-76
2022/08/26 09:06:55;;;;;;;10.27;2.72;;;21.90;99.90;;;;;;5013564;28;20049;-77
2022/08/26 09:09:28;;;;;;;6.97;2.53;;;21.80;99.90;;;;;;5013767;28;20095;-77
2022/08/26 09:11:57;;;;;;;9.52;2.60;;;21.80;99.90;;;;;;5013462;28;20543;-75
2022/08/26 09:14:24;;;;;;;7.28;2.63;;;21.80;99.90;;;;;;5019847;28;20037;-76
2022/08/26 09:17:12;;;;;;;8.82;2.53;;;21.80;99.90;;;;;;5017005;28;20098;-75
2022/08/26 09:19:57;;;;;;;21.92;2.95;;;21.80;99.90;;;;;;5032799;28;20049;-76
2022/08/26 09:22:27;;;;;;;;;;;21.90;99.90;;;;;;5017153;28;20473;-76
2022/08/26 09:24:52;;;;;;;5.15;2.75;;;21.80;99.90;;;;;;5015565;28;19921;-76
2022/08/26 09:27:42;;;;;;;4.45;2.20;;;21.80;99.90;;;;;;5028111;28;20052;-76
2022/08/26 09:30:11;;;;;;;9.48;2.45;;;21.80;99.90;;;;;;5042594;28;20037;-75
2022/08/26 09:32:37;;;;;;;7.05;2.45;;;21.70;99.90;;;;;;5042258;28;20048;-76
2022/08/26 09:35:30;;;;;;;6.10;2.40;;;21.60;99.90;;;;;;5021310;28;20098;-75
2022/08/26 09:37:57;;;;;;;7.20;2.30;;;21.60;99.90;;;;;;5042741;28;20045;-75
2022/08/26 09:40:25;;;;;;;6.30;2.13;;;21.60;99.90;;;;;;5017678;28;20041;-76
2022/08/26 09:43:21;;;;;;;8.80;2.90;;;21.60;99.90;;;;;;5016531;28;20045;-76
2022/08/26 09:45:53;;;;;;;6.45;3.03;;;21.60;99.90;;;;;;4999864;28;20056;-76
2022/08/26 09:48:31;;;;;;;6.25;2.42;;;21.70;99.90;;;;;;5016367;28;20044;-76
2022/08/26 09:51:01;;;;;;;7.30;2.40;;;21.70;99.90;;;;;;5027689;28;20041;-76
2022/08/26 09:53:30;;;;;;;10.07;2.67;;;21.70;99.90;;;;;;5018550;28;20042;-76
2022/08/26 09:56:11;;;;;;;14.18;2.60;;;21.70;99.90;;;;;;5017286;28;20042;-75
2022/08/26 09:58:39;;;;;;;5.82;2.50;;;21.60;99.90;;;;;;4999930;28;20056;-76
2022/08/26 10:01:23;;;;;;;6.90;2.97;;;21.70;99.90;;;;;;5013952;28;20107;-75
2022/08/26 10:03:50;;;;;;;8.47;2.87;;;21.50;99.90;;;;;;4996638;28;20076;-76
2022/08/26 10:06:15;;;;;;;9.40;3.00;;;21.60;99.90;;;;;;5016437;28;20791;-76
2022/08/26 10:08:45;;;;;;;10.73;2.95;;;21.60;99.90;;;;;;5052120;28;20081;-76
2022/08/26 10:11:33;;;;;;;8.63;2.97;;;21.60;99.90;;;;;;5052074;28;20080;-76
2022/08/26 10:14:06;;;;;;;5.00;2.40;;;21.70;99.90;;;;;;5054763;28;20131;-75
2022/08/26 10:17:12;;;;;;;6.00;2.03;;;21.80;99.90;;;;;;5039404;28;20119;-76
2022/08/26 10:19:46;;;;;;;7.30;2.70;;;21.80;99.90;;;;;;5055260;28;20048;-75
2022/08/26 10:22:19;;;;;;;8.18;2.63;;;21.70;99.90;;;;;;5039646;28;20661;-76
2022/08/26 10:24:51;;;;;;;6.57;2.87;;;21.70;99.90;;;;;;5055876;28;20493;-76
2022/08/26 10:27:26;;;;;;;8.65;3.22;;;21.70;99.90;;;;;;5056266;28;20079;-76
2022/08/26 10:30:01;;;;;;;8.15;2.60;;;22.00;99.90;;;;;;5056118;28;20036;-76
2022/08/26 10:32:36;;;;;;;9.73;3.33;;;21.90;99.90;;;;;;5039217;28;20609;-76
2022/08/26 10:35:03;;;;;;;8.00;2.83;;;22.00;99.90;;;;;;5056159;28;20519;-76
2022/08/26 10:37:48;;;;;;;6.97;3.28;;;21.90;99.90;;;;;;5055675;28;20083;-76
2022/08/26 10:40:51;;;;;;;7.78;3.50;;;21.80;99.90;;;;;;5039337;28;20036;-75
2022/08/26 10:43:22;;;;;;;6.35;2.97;;;21.60;99.90;;;;;;5043049;28;20062;-75
2022/08/26 10:46:03;;;;;;;8.90;2.97;;;21.50;99.90;;;;;;5055651;28;20048;-76
2022/08/26 10:48:44;;;;;;;6.82;3.25;;;21.50;99.90;;;;;;5055442;28;20040;-76
2022/08/26 10:51:12;;;;;;;6.80;3.10;;;21.60;99.90;;;;;;5030266;28;20049;-76
2022/08/26 10:53:54;;;;;;;7.82;3.17;;;21.60;99.90;;;;;;5035710;28;20037;-76
2022/08/26 10:56:39;;;;;;;9.80;3.25;;;21.70;99.90;;;;;;5019287;28;20048;-76
2022/08/26 10:59:42;;;;;;;7.65;3.60;;;21.60;99.90;;;;;;5035465;28;20037;-75
2022/08/26 11:02:23;;;;;;;8.05;3.30;;;21.60;99.90;;;;;;5011060;28;20053;-76
2022/08/26 11:05:03;;;;;;;9.52;3.20;;;21.50;99.90;;;;;;5035569;28;20052;-76
2022/08/26 11:07:35;;;;;;;8.73;2.97;;;21.50;99.90;;;;;;5019251;28;20032;-76
2022/08/26 11:10:06;;;;;;;7.63;3.33;;;21.60;99.90;;;;;;5018747;28;20044;-75
2022/08/26 11:12:35;;;;;;;6.57;3.20;;;21.70;99.90;;;;;;5032019;28;20047;-76
2022/08/26 11:15:32;;;;;;;10.52;4.00;;;21.70;99.90;;;;;;5009328;28;20071;-76
2022/08/26 11:18:04;;;;;;;7.75;2.88;;;21.80;99.90;;;;;;5018513;28;20135;-76
2022/08/26 11:20:44;;;;;;;8.65;4.22;;;21.60;99.90;;;;;;5018762;28;20048;-75
2022/08/26 11:23:19;;;;;;;7.38;3.10;;;21.60;99.90;;;;;;5018562;28;20061;-76
2022/08/26 11:26:06;;;;;;;7.22;2.53;;;21.60;99.90;;;;;;5033910;28;20045;-76
2022/08/26 11:28:46;;;;;;;7.32;2.67;;;21.50;99.90;;;;;;5035177;28;20087;-76
2022/08/26 11:31:18;;;;;;;11.55;3.20;;;21.60;99.90;;;;;;5018371;28;20053;-76
2022/08/26 11:33:47;;;;;;;6.78;3.33;;;21.70;99.90;;;;;;5018575;28;20283;-76
2022/08/26 11:36:46;;;;;;;6.70;2.60;;;21.90;99.90;;;;;;5034710;28;20041;-76
2022/08/26 11:39:50;;;;;;;8.68;2.90;;;22.00;99.90;;;;;;5034601;28;20076;-76
2022/08/26 11:42:39;;;;;;;9.13;2.45;;;22.10;99.90;;;;;;5035123;28;20041;-76
2022/08/26 11:45:37;;;;;;;6.18;2.38;;;22.20;99.90;;;;;;5034805;28;20053;-76
2022/08/26 11:48:42;;;;;;;8.15;2.42;;;22.20;99.90;;;;;;5029440;28;20108;-76
2022/08/26 11:51:08;;;;;;;5.15;2.30;;;22.60;99.90;;;;;;4954953;28;20046;-76
2022/08/26 11:53:37;;;;;;;7.68;2.72;;;22.60;99.90;;;;;;4939143;28;20049;-76
2022/08/26 11:56:15;;;;;;;6.20;2.58;;;22.50;99.90;;;;;;4994096;28;20041;-76
2022/08/26 11:58:42;;;;;;;10.95;2.75;;;22.40;99.90;;;;;;5028972;28;20044;-76
2022/08/26 12:01:10;;;;;;;6.35;3.03;;;22.20;99.90;;;;;;5033000;28;20071;-75
2022/08/26 12:03:47;;;;;;;5.90;2.33;;;22.10;99.90;;;;;;5032901;28;20052;-77
2022/08/26 12:06:23;;;;;;;6.57;2.15;;;22.10;99.90;;;;;;5015692;28;20049;-75
2022/08/26 12:08:52;;;;;;;8.82;2.42;;;21.90;99.90;;;;;;5031948;28;20043;-76
2022/08/26 12:11:30;;;;;;;11.13;2.90;;;21.90;99.90;;;;;;5016167;28;20052;-75
2022/08/26 12:14:05;;;;;;;6.18;2.10;;;21.80;99.90;;;;;;5032863;28;20077;-76
2022/08/26 12:16:37;;;;;;;9.38;2.60;;;21.90;99.90;;;;;;5033264;28;20083;-76
2022/08/26 12:19:25;;;;;;;9.32;2.70;;;21.90;99.90;;;;;;5033054;28;20044;-77
2022/08/26 12:22:02;;;;;;;8.23;2.38;;;22.00;99.90;;;;;;5032516;28;20072;-77
2022/08/26 12:24:28;;;;;;;6.82;2.25;;;22.00;99.90;;;;;;5033182;28;20060;-77
2022/08/26 12:27:28;;;;;;;6.50;2.60;;;22.00;99.90;;;;;;5016033;28;20041;-77
2022/08/26 12:30:05;;;;;;;5.65;2.67;;;21.90;99.90;;;;;;4963598;28;20485;-77
2022/08/26 12:32:32;;;;;;;6.05;2.65;;;21.80;99.90;;;;;;5016324;28;20447;-76
2022/08/26 12:35:00;;;;;;;6.80;2.63;;;21.60;99.90;;;;;;5016284;28;20550;-76
2022/08/26 12:37:28;;;;;;;5.97;2.33;;;21.40;99.90;;;;;;5016244;28;20040;-76
2022/08/26 12:39:54;;;;;;;6.03;2.58;;;21.30;99.90;;;;;;5032116;28;20045;-76
2022/08/26 12:42:39;;;;;;;5.53;2.58;;;21.20;99.90;;;;;;5016537;28;20051;-76
2022/08/26 12:45:05;;;;;;;10.02;2.60;;;21.10;99.90;;;;;;5015955;28;20052;-77
2022/08/26 12:47:37;;;;;;;6.43;2.38;;;20.90;99.90;;;;;;4999673;28;20136;-76
2022/08/26 12:50:24;;;;;;;6.97;2.17;;;20.90;99.90;;;;;;5032437;28;20156;-77
2022/08/26 12:53:04;;;;;;;7.72;1.90;;;20.90;99.90;;;;;;5032067;28;20084;-78
2022/08/26 12:55:35;;;;;;;7.88;2.70;;;20.80;99.90;;;;;;5033050;28;20041;-76
2022/08/26 12:58:19;;;;;;;5.53;2.08;;;20.70;99.90;;;;;;5015861;28;20052;-77
2022/08/26 13:00:47;;;;;;;4.75;1.80;;;20.70;99.90;;;;;;5032252;28;20120;-76
2022/08/26 13:03:29;;;;;;;7.95;2.47;;;20.60;99.90;;;;;;5032471;28;20154;-76